createdAt,value
2017-11-22T00:00:38.272Z,0.00
2017-11-22T00:01:38.262Z,0.00
2017-11-22T00:02:38.242Z,0.00
2017-11-22T00:03:38.232Z,0.00
2017-11-22T00:04:38.215Z,0.00
2017-11-22T00:05:38.201Z,0.00
2017-11-22T00:06:38.184Z,0.00
2017-11-22T00:07:38.171Z,0.00
2017-11-22T00:08:38.164Z,0.00
2017-11-22T00:09:38.152Z,0.00
2017-11-22T00:10:38.129Z,0.00
2017-11-22T00:11:38.121Z,0.00
2017-11-22T00:12:38.101Z,0.00
2017-11-22T00:13:38.094Z,0.00
2017-11-22T00:14:38.079Z,0.00
2017-11-22T00:15:38.067Z,0.00
2017-11-22T00:16:38.042Z,0.00
2017-11-22T00:17:38.035Z,0.00
2017-11-22T00:18:38.015Z,0.00
2017-11-22T00:19:38.000Z,0.00
2017-11-22T00:20:37.988Z,0.00
2017-11-22T00:21:37.972Z,0.00
2017-11-22T00:22:37.965Z,0.00
2017-11-22T00:23:37.950Z,0.00
2017-11-22T00:24:37.930Z,0.00
2017-11-22T00:25:37.917Z,0.00
2017-11-22T00:26:37.912Z,0.00
2017-11-22T00:27:37.894Z,0.00
2017-11-22T00:28:37.873Z,0.00
2017-11-22T00:29:37.858Z,0.00
2017-11-22T00:30:37.853Z,0.00
2017-11-22T00:31:37.837Z,0.00
2017-11-22T00:32:37.816Z,0.00
2017-11-22T00:33:37.802Z,0.00
2017-11-22T00:34:37.787Z,0.00
2017-11-22T00:35:37.792Z,0.00
2017-11-22T00:36:37.765Z,0.00
2017-11-22T00:37:37.753Z,0.00
2017-11-22T00:38:37.733Z,0.00
2017-11-22T00:39:37.716Z,0.00
2017-11-22T00:40:37.718Z,0.00
2017-11-22T00:41:37.688Z,0.00
2017-11-22T00:42:37.675Z,0.00
2017-11-22T00:43:37.659Z,0.00
2017-11-22T00:44:37.644Z,0.00
2017-11-22T00:45:37.631Z,0.00
2017-11-22T00:46:37.630Z,0.00
2017-11-22T00:47:37.602Z,0.00
2017-11-22T00:48:37.588Z,0.00
2017-11-22T00:49:37.575Z,0.00
2017-11-22T00:50:37.560Z,0.00
2017-11-22T00:51:37.547Z,0.00
2017-11-22T00:52:37.537Z,0.00
2017-11-22T00:53:37.516Z,0.00
2017-11-22T00:54:37.502Z,0.00
2017-11-22T00:55:37.509Z,0.00
2017-11-22T00:56:37.474Z,0.00
2017-11-22T00:57:37.467Z,0.00
2017-11-22T00:58:37.445Z,0.00
2017-11-22T00:59:37.435Z,0.00
2017-11-22T01:00:37.416Z,0.00
2017-11-22T01:01:37.401Z,0.00
2017-11-22T01:02:37.388Z,0.00
2017-11-22T01:03:37.379Z,0.00
2017-11-22T01:04:37.368Z,0.00
2017-11-22T01:05:37.346Z,0.00
2017-11-22T01:06:37.334Z,0.00
2017-11-22T01:07:37.313Z,0.00
2017-11-22T01:08:37.305Z,0.00
2017-11-22T01:09:37.285Z,0.00
2017-11-22T01:10:37.277Z,0.00
2017-11-22T01:11:37.257Z,0.00
2017-11-22T01:12:37.240Z,0.00
2017-11-22T01:13:37.229Z,0.00
2017-11-22T01:14:37.215Z,0.00
2017-11-22T01:15:37.197Z,0.00
2017-11-22T01:16:37.189Z,0.00
2017-11-22T01:17:37.174Z,0.00
2017-11-22T01:18:37.159Z,0.00
2017-11-22T01:19:37.140Z,0.00
2017-11-22T01:20:37.125Z,0.00
2017-11-22T01:21:37.118Z,0.00
2017-11-22T01:22:37.101Z,0.00
2017-11-22T01:23:37.081Z,0.00
2017-11-22T01:24:37.064Z,0.00
2017-11-22T01:25:37.052Z,0.00
2017-11-22T01:26:37.056Z,0.00
2017-11-22T01:27:37.023Z,0.00
2017-11-22T01:28:37.007Z,0.00
2017-11-22T01:29:37.015Z,0.00
2017-11-22T01:30:36.977Z,0.00
2017-11-22T01:31:36.962Z,0.00
2017-11-22T01:32:36.955Z,0.00
2017-11-22T01:33:36.933Z,0.00
2017-11-22T01:34:36.924Z,0.00
2017-11-22T01:35:36.901Z,0.00
2017-11-22T01:36:36.887Z,0.00
2017-11-22T01:37:36.872Z,0.00
2017-11-22T01:38:36.856Z,0.00
2017-11-22T01:39:36.846Z,0.00
2017-11-22T01:40:36.827Z,0.00
2017-11-22T01:41:36.811Z,0.00
2017-11-22T01:42:36.797Z,0.00
2017-11-22T01:43:36.780Z,0.00
2017-11-22T01:44:36.766Z,0.00
2017-11-22T01:45:36.760Z,0.00
2017-11-22T01:46:36.744Z,0.00
2017-11-22T01:47:36.722Z,0.00
2017-11-22T01:48:36.711Z,0.00
2017-11-22T01:49:36.696Z,0.00
2017-11-22T01:50:36.676Z,0.00
2017-11-22T01:51:36.668Z,0.00
2017-11-22T01:52:36.644Z,0.00
2017-11-22T01:53:36.631Z,0.00
2017-11-22T01:54:36.622Z,0.00
2017-11-22T01:55:36.600Z,0.00
2017-11-22T01:56:36.585Z,0.00
2017-11-22T01:57:36.567Z,0.00
2017-11-22T01:58:36.559Z,0.00
2017-11-22T01:59:36.540Z,0.00
2017-11-22T02:00:36.533Z,0.00
2017-11-22T02:01:36.509Z,0.00
2017-11-22T02:02:36.498Z,0.00
2017-11-22T02:03:36.483Z,0.00
2017-11-22T02:04:36.468Z,0.00
2017-11-22T02:05:36.453Z,0.00
2017-11-22T02:06:36.441Z,0.00
2017-11-22T02:07:36.421Z,0.00
2017-11-22T02:08:36.416Z,0.00
2017-11-22T02:09:36.387Z,0.00
2017-11-22T02:10:36.372Z,0.00
2017-11-22T02:11:36.357Z,0.00
2017-11-22T02:12:36.341Z,0.00
2017-11-22T02:13:36.325Z,0.00
2017-11-22T02:14:36.313Z,0.00
2017-11-22T02:15:36.295Z,0.00
2017-11-22T02:16:36.285Z,0.00
2017-11-22T02:17:36.263Z,0.00
2017-11-22T02:18:36.253Z,0.00
2017-11-22T02:19:36.239Z,0.00
2017-11-22T02:20:36.223Z,0.00
2017-11-22T02:21:36.201Z,0.00
2017-11-22T02:22:36.187Z,0.00
2017-11-22T02:23:36.175Z,0.00
2017-11-22T02:24:36.156Z,0.00
2017-11-22T02:25:36.140Z,0.00
2017-11-22T02:26:36.127Z,0.00
2017-11-22T02:27:36.113Z,0.00
2017-11-22T02:28:36.095Z,0.00
2017-11-22T02:29:36.078Z,0.00
2017-11-22T02:30:36.066Z,0.00
2017-11-22T02:31:36.048Z,0.00
2017-11-22T02:32:36.037Z,0.00
2017-11-22T02:33:36.018Z,0.00
2017-11-22T02:34:36.007Z,0.00
2017-11-22T02:35:35.989Z,0.00
2017-11-22T02:36:35.973Z,0.00
2017-11-22T02:37:35.958Z,0.00
2017-11-22T02:38:35.953Z,0.00
2017-11-22T02:39:35.923Z,0.00
2017-11-22T02:40:35.908Z,0.00
2017-11-22T02:41:35.891Z,0.00
2017-11-22T02:42:35.885Z,0.00
2017-11-22T02:43:35.875Z,0.00
2017-11-22T02:44:35.843Z,0.00
2017-11-22T02:45:35.829Z,0.00
2017-11-22T02:46:35.819Z,0.00
2017-11-22T02:47:35.797Z,0.00
2017-11-22T02:48:35.784Z,0.00
2017-11-22T02:49:35.770Z,0.00
2017-11-22T02:50:35.751Z,0.00
2017-11-22T02:51:35.739Z,0.00
2017-11-22T02:52:35.724Z,0.00
2017-11-22T02:53:35.704Z,0.00
2017-11-22T02:54:35.689Z,0.00
2017-11-22T02:55:35.674Z,0.00
2017-11-22T02:56:35.660Z,0.00
2017-11-22T02:57:35.649Z,0.00
2017-11-22T02:58:35.645Z,0.00
2017-11-22T02:59:35.609Z,0.00
2017-11-22T03:00:35.595Z,0.00
2017-11-22T03:01:35.587Z,0.00
2017-11-22T03:02:35.569Z,0.00
2017-11-22T03:03:35.555Z,0.00
2017-11-22T03:04:35.531Z,0.00
2017-11-22T03:05:35.520Z,0.00
2017-11-22T03:06:35.508Z,0.00
2017-11-22T03:07:35.493Z,0.00
2017-11-22T03:08:35.476Z,0.00
2017-11-22T03:09:35.459Z,0.00
2017-11-22T03:10:35.440Z,0.00
2017-11-22T03:11:35.425Z,0.00
2017-11-22T03:12:35.416Z,0.00
2017-11-22T03:13:35.393Z,0.00
2017-11-22T03:14:35.383Z,0.00
2017-11-22T03:15:35.361Z,0.00
2017-11-22T03:16:35.347Z,0.00
2017-11-22T03:17:35.330Z,0.00
2017-11-22T03:18:35.365Z,0.00
2017-11-22T03:19:35.304Z,0.00
2017-11-22T03:20:35.283Z,0.00
2017-11-22T03:21:35.268Z,0.00
2017-11-22T03:22:35.261Z,0.00
2017-11-22T03:23:35.238Z,0.00
2017-11-22T03:24:35.227Z,0.00
2017-11-22T03:25:35.208Z,0.00
2017-11-22T03:26:35.189Z,0.00
2017-11-22T03:27:35.174Z,0.00
2017-11-22T03:28:35.164Z,0.00
2017-11-22T03:29:35.145Z,0.00
2017-11-22T03:30:35.130Z,0.00
2017-11-22T03:31:35.112Z,0.00
2017-11-22T03:32:35.100Z,0.00
2017-11-22T03:33:35.080Z,0.00
2017-11-22T03:34:35.065Z,0.00
2017-11-22T03:35:35.050Z,0.00
2017-11-22T03:36:35.034Z,0.00
2017-11-22T03:37:35.017Z,0.00
2017-11-22T03:38:35.002Z,0.00
2017-11-22T03:39:34.991Z,0.00
2017-11-22T03:40:34.972Z,0.00
2017-11-22T03:41:34.957Z,0.00
2017-11-22T03:42:34.944Z,0.00
2017-11-22T03:43:34.926Z,0.00
2017-11-22T03:44:34.922Z,0.00
2017-11-22T03:45:34.897Z,0.00
2017-11-22T03:46:34.876Z,0.00
2017-11-22T03:47:34.861Z,0.00
2017-11-22T03:48:34.846Z,0.00
2017-11-22T03:49:34.832Z,0.00
2017-11-22T03:50:34.815Z,0.00
2017-11-22T03:51:34.798Z,0.00
2017-11-22T03:52:34.791Z,0.00
2017-11-22T03:53:34.775Z,0.00
2017-11-22T03:54:34.753Z,0.00
2017-11-22T03:55:34.734Z,0.00
2017-11-22T03:56:34.719Z,0.00
2017-11-22T03:57:34.702Z,0.00
2017-11-22T03:58:34.687Z,0.00
2017-11-22T03:59:34.677Z,0.00
2017-11-22T04:00:34.656Z,0.00
2017-11-22T04:01:34.643Z,0.00
2017-11-22T04:02:34.632Z,0.00
2017-11-22T04:03:34.611Z,0.00
2017-11-22T04:04:34.595Z,0.00
2017-11-22T04:05:34.579Z,0.00
2017-11-22T04:06:34.568Z,0.00
2017-11-22T04:07:34.545Z,0.00
2017-11-22T04:08:34.529Z,0.00
2017-11-22T04:09:34.515Z,0.00
2017-11-22T04:10:34.506Z,0.00
2017-11-22T04:11:34.481Z,0.00
2017-11-22T04:12:34.467Z,0.00
2017-11-22T04:13:34.458Z,0.00
2017-11-22T04:14:34.437Z,0.00
2017-11-22T04:15:34.423Z,0.00
2017-11-22T04:16:34.404Z,0.00
2017-11-22T04:17:34.390Z,0.00
2017-11-22T04:18:34.373Z,0.00
2017-11-22T04:19:34.359Z,0.00
2017-11-22T04:20:34.343Z,0.00
2017-11-22T04:21:34.326Z,0.00
2017-11-22T04:22:34.309Z,0.00
2017-11-22T04:23:34.293Z,0.00
2017-11-22T04:24:34.279Z,0.00
2017-11-22T04:25:34.267Z,0.00
2017-11-22T04:26:34.250Z,0.00
2017-11-22T04:27:34.236Z,0.00
2017-11-22T04:28:34.215Z,0.00
2017-11-22T04:29:34.200Z,0.00
2017-11-22T04:30:34.189Z,0.00
2017-11-22T04:31:34.167Z,0.00
2017-11-22T04:32:34.152Z,0.00
2017-11-22T04:33:34.138Z,0.00
2017-11-22T04:34:34.124Z,0.00
2017-11-22T04:35:34.106Z,0.00
2017-11-22T04:36:34.089Z,0.00
2017-11-22T04:37:34.076Z,0.00
2017-11-22T04:38:34.057Z,0.00
2017-11-22T04:39:34.043Z,0.00
2017-11-22T04:40:34.027Z,0.00
2017-11-22T04:41:34.010Z,0.00
2017-11-22T04:42:33.995Z,0.00
2017-11-22T04:43:33.978Z,0.00
2017-11-22T04:44:33.968Z,0.00
2017-11-22T04:45:33.947Z,0.00
2017-11-22T04:46:33.936Z,0.00
2017-11-22T04:47:33.915Z,0.00
2017-11-22T04:48:33.904Z,0.00
2017-11-22T04:49:33.883Z,0.00
2017-11-22T04:50:33.875Z,0.00
2017-11-22T04:51:33.853Z,0.00
2017-11-22T04:52:33.838Z,0.00
2017-11-22T04:53:33.822Z,0.00
2017-11-22T04:54:33.809Z,0.00
2017-11-22T04:55:33.789Z,0.00
2017-11-22T04:56:33.771Z,0.00
2017-11-22T04:57:33.759Z,0.00
2017-11-22T04:58:33.746Z,0.00
2017-11-22T04:59:33.725Z,0.00
2017-11-22T05:00:33.712Z,0.00
2017-11-22T05:01:33.693Z,0.00
2017-11-22T05:02:33.677Z,0.00
2017-11-22T05:03:33.668Z,0.00
2017-11-22T05:04:33.647Z,0.00
2017-11-22T05:05:33.633Z,0.00
2017-11-22T05:06:33.613Z,0.00
2017-11-22T05:07:33.596Z,0.00
2017-11-22T05:08:33.581Z,0.00
2017-11-22T05:09:33.569Z,0.00
2017-11-22T05:10:33.553Z,0.00
2017-11-22T05:11:33.533Z,0.00
2017-11-22T05:12:33.527Z,0.00
2017-11-22T05:13:33.505Z,0.00
2017-11-22T05:14:33.488Z,0.00
2017-11-22T05:15:33.469Z,0.00
2017-11-22T05:16:33.455Z,0.00
2017-11-22T05:17:33.447Z,0.00
2017-11-22T05:18:33.422Z,0.00
2017-11-22T05:19:33.406Z,0.00
2017-11-22T05:20:33.390Z,0.00
2017-11-22T05:21:33.376Z,0.00
2017-11-22T05:22:33.361Z,0.00
2017-11-22T05:23:33.343Z,0.00
2017-11-22T05:24:33.328Z,0.00
2017-11-22T05:25:33.313Z,0.00
2017-11-22T05:26:33.305Z,0.00
2017-11-22T05:27:33.284Z,0.00
2017-11-22T05:28:33.264Z,0.00
2017-11-22T05:29:33.255Z,0.00
2017-11-22T05:30:33.233Z,0.00
2017-11-22T05:31:33.225Z,0.00
2017-11-22T05:32:33.205Z,0.00
2017-11-22T05:33:33.193Z,0.00
2017-11-22T05:34:33.172Z,0.00
2017-11-22T05:35:33.158Z,0.00
2017-11-22T05:36:33.142Z,0.00
2017-11-22T05:37:33.120Z,0.00
2017-11-22T05:38:33.107Z,0.00
2017-11-22T05:39:33.088Z,0.00
2017-11-22T05:40:33.071Z,0.00
2017-11-22T05:41:33.057Z,0.00
2017-11-22T05:42:33.044Z,0.00
2017-11-22T05:43:33.025Z,0.00
2017-11-22T05:44:33.014Z,0.00
2017-11-22T05:45:32.995Z,0.00
2017-11-22T05:46:32.978Z,0.00
2017-11-22T05:47:32.963Z,0.00
2017-11-22T05:48:32.946Z,0.00
2017-11-22T05:49:32.933Z,0.00
2017-11-22T05:50:32.913Z,0.00
2017-11-22T05:51:32.901Z,0.00
2017-11-22T05:52:32.883Z,0.00
2017-11-22T05:53:32.868Z,0.00
2017-11-22T05:54:32.851Z,0.00
2017-11-22T05:55:32.840Z,0.00
2017-11-22T05:56:32.819Z,0.00
2017-11-22T05:57:32.813Z,0.00
2017-11-22T05:58:32.788Z,0.00
2017-11-22T05:59:32.778Z,0.00
2017-11-22T06:00:32.755Z,0.00
2017-11-22T06:01:32.748Z,0.00
2017-11-22T06:02:32.729Z,0.00
2017-11-22T06:03:32.711Z,0.00
2017-11-22T06:04:32.693Z,0.00
2017-11-22T06:05:32.680Z,0.00
2017-11-22T06:06:32.666Z,0.00
2017-11-22T06:07:32.646Z,0.00
2017-11-22T06:08:32.636Z,0.00
2017-11-22T06:09:32.617Z,0.00
2017-11-22T06:10:32.606Z,0.00
2017-11-22T06:11:32.584Z,0.00
2017-11-22T06:12:32.568Z,0.00
2017-11-22T06:13:32.555Z,0.00
2017-11-22T06:14:32.542Z,0.00
2017-11-22T06:15:32.519Z,0.00
2017-11-22T06:16:32.503Z,4.00
2017-11-22T06:17:32.491Z,4.00
2017-11-22T06:18:32.478Z,0.00
2017-11-22T06:19:32.457Z,0.00
2017-11-22T06:20:32.439Z,4.00
2017-11-22T06:21:32.432Z,4.00
2017-11-22T06:22:32.413Z,4.00
2017-11-22T06:23:32.397Z,4.00
2017-11-22T06:24:32.378Z,4.00
2017-11-22T06:25:32.369Z,8.00
2017-11-22T06:26:32.348Z,8.00
2017-11-22T06:27:32.329Z,8.00
2017-11-22T06:28:32.321Z,12.00
2017-11-22T06:29:32.305Z,12.00
2017-11-22T06:30:32.284Z,16.00
2017-11-22T06:31:32.267Z,16.00
2017-11-22T06:32:32.256Z,20.00
2017-11-22T06:33:32.233Z,20.00
2017-11-22T06:34:32.258Z,20.00
2017-11-22T06:35:32.203Z,24.00
2017-11-22T06:36:32.194Z,24.00
2017-11-22T06:37:32.173Z,28.00
2017-11-22T06:38:32.158Z,32.00
2017-11-22T06:39:32.138Z,32.00
2017-11-22T06:40:32.122Z,36.00
2017-11-22T06:41:32.107Z,40.00
2017-11-22T06:42:32.092Z,44.00
2017-11-22T06:43:32.080Z,48.00
2017-11-22T06:44:32.063Z,52.00
2017-11-22T06:45:32.044Z,60.00
2017-11-22T06:46:32.032Z,60.00
2017-11-22T06:47:32.015Z,68.00
2017-11-22T06:48:32.006Z,76.00
2017-11-22T06:49:31.992Z,80.00
2017-11-22T06:50:31.966Z,84.00
2017-11-22T06:51:31.950Z,88.00
2017-11-22T06:52:31.930Z,92.00
2017-11-22T06:53:31.919Z,100.00
2017-11-22T06:54:31.899Z,108.00
2017-11-22T06:55:31.892Z,120.00
2017-11-22T06:56:31.869Z,132.00
2017-11-22T06:57:31.850Z,144.00
2017-11-22T06:58:31.835Z,152.00
2017-11-22T06:59:31.822Z,168.00
2017-11-22T07:00:31.807Z,180.00
2017-11-22T07:01:31.786Z,196.00
2017-11-22T07:02:31.771Z,208.00
2017-11-22T07:03:31.763Z,220.00
2017-11-22T07:04:31.738Z,232.00
2017-11-22T07:05:31.727Z,248.00
2017-11-22T07:06:31.713Z,260.00
2017-11-22T07:07:31.695Z,276.00
2017-11-22T07:08:31.681Z,284.00
2017-11-22T07:09:31.659Z,300.00
2017-11-22T07:10:31.642Z,312.00
2017-11-22T07:11:31.626Z,328.00
2017-11-22T07:12:31.615Z,340.00
2017-11-22T07:13:31.607Z,348.00
2017-11-22T07:14:31.582Z,360.00
2017-11-22T07:15:31.559Z,372.00
2017-11-22T07:16:31.544Z,388.00
2017-11-22T07:17:31.529Z,400.00
2017-11-22T07:18:31.514Z,400.00
2017-11-22T07:19:31.497Z,404.00
2017-11-22T07:20:31.480Z,404.00
2017-11-22T07:21:31.466Z,408.00
2017-11-22T07:22:31.450Z,404.00
2017-11-22T07:23:31.435Z,404.00
2017-11-22T07:24:31.421Z,404.00
2017-11-22T07:25:31.407Z,412.00
2017-11-22T07:26:31.390Z,416.00
2017-11-22T07:27:31.368Z,424.00
2017-11-22T07:28:31.354Z,432.00
2017-11-22T07:29:31.335Z,448.00
2017-11-22T07:30:31.324Z,460.00
2017-11-22T07:31:31.304Z,476.00
2017-11-22T07:32:31.288Z,492.00
2017-11-22T07:33:31.273Z,508.00
2017-11-22T07:34:31.257Z,516.00
2017-11-22T07:35:31.246Z,516.00
2017-11-22T07:36:31.224Z,520.00
2017-11-22T07:37:31.210Z,516.00
2017-11-22T07:38:31.194Z,520.00
2017-11-22T07:39:31.181Z,520.00
2017-11-22T07:40:31.165Z,528.00
2017-11-22T07:41:31.148Z,540.00
2017-11-22T07:42:31.129Z,556.00
2017-11-22T07:43:31.111Z,556.00
2017-11-22T07:44:31.098Z,568.00
2017-11-22T07:45:31.082Z,580.00
2017-11-22T07:46:31.065Z,596.00
2017-11-22T07:47:31.054Z,612.00
2017-11-22T07:48:31.033Z,624.00
2017-11-22T07:49:31.022Z,628.00
2017-11-22T07:50:31.002Z,624.00
2017-11-22T07:51:30.985Z,612.00
2017-11-22T07:52:30.970Z,628.00
2017-11-22T07:53:30.956Z,656.00
2017-11-22T07:54:30.942Z,688.00
2017-11-22T07:55:30.923Z,708.00
2017-11-22T07:56:30.906Z,736.00
2017-11-22T07:57:30.907Z,744.00
2017-11-22T07:58:30.875Z,756.00
2017-11-22T07:59:30.866Z,776.00
2017-11-22T08:00:30.851Z,788.00
2017-11-22T08:01:30.827Z,804.00
2017-11-22T08:02:30.812Z,824.00
2017-11-22T08:03:30.793Z,836.00
2017-11-22T08:04:30.779Z,840.00
2017-11-22T08:05:30.764Z,844.00
2017-11-22T08:06:30.750Z,852.00
2017-11-22T08:07:30.735Z,860.00
2017-11-22T08:08:30.717Z,872.00
2017-11-22T08:09:30.707Z,880.00
2017-11-22T08:10:30.685Z,876.00
2017-11-22T08:11:30.668Z,892.00
2017-11-22T08:12:30.655Z,900.00
2017-11-22T08:13:30.644Z,908.00
2017-11-22T08:14:30.625Z,900.00
2017-11-22T08:15:30.606Z,908.00
2017-11-22T08:16:30.596Z,912.00
2017-11-22T08:17:30.589Z,904.00
2017-11-22T08:18:30.559Z,904.00
2017-11-22T08:19:30.549Z,916.00
2017-11-22T08:20:30.535Z,900.00
2017-11-22T08:21:30.514Z,936.00
2017-11-22T08:22:30.500Z,912.00
2017-11-22T08:23:30.483Z,916.00
2017-11-22T08:24:30.466Z,924.00
2017-11-22T08:25:30.452Z,936.00
2017-11-22T08:26:30.438Z,948.00
2017-11-22T08:27:30.422Z,944.00
2017-11-22T08:28:30.408Z,960.00
2017-11-22T08:29:30.388Z,960.00
2017-11-22T08:30:30.372Z,964.00
2017-11-22T08:31:30.357Z,984.00
2017-11-22T08:32:30.349Z,1012.00
2017-11-22T08:33:30.332Z,1036.00
2017-11-22T08:34:30.320Z,1036.00
2017-11-22T08:35:30.301Z,1052.00
2017-11-22T08:36:30.287Z,1064.00
2017-11-22T08:37:30.266Z,1032.00
2017-11-22T08:38:30.252Z,1056.00
2017-11-22T08:39:30.234Z,1112.00
2017-11-22T08:40:30.229Z,1148.00
2017-11-22T08:41:30.212Z,1176.00
2017-11-22T08:42:30.193Z,1272.00
2017-11-22T08:43:30.174Z,1280.00
2017-11-22T08:44:30.162Z,1344.00
2017-11-22T08:45:30.146Z,1344.00
2017-11-22T08:46:30.131Z,1364.00
2017-11-22T08:47:30.126Z,1384.00
2017-11-22T08:48:30.100Z,1392.00
2017-11-22T08:49:30.086Z,1356.00
2017-11-22T08:50:30.073Z,1404.00
2017-11-22T08:51:30.055Z,1416.00
2017-11-22T08:52:30.043Z,1436.00
2017-11-22T08:53:30.035Z,1436.00
2017-11-22T08:54:30.012Z,1352.00
2017-11-22T08:55:30.011Z,1388.00
2017-11-22T08:56:29.984Z,1396.00
2017-11-22T08:57:29.968Z,1416.00
2017-11-22T08:58:29.954Z,1320.00
2017-11-22T08:59:29.948Z,1452.00
2017-11-22T09:00:29.926Z,1396.00
2017-11-22T09:01:29.915Z,1356.00
2017-11-22T09:02:29.903Z,1464.00
2017-11-22T09:03:29.882Z,1468.00
2017-11-22T09:04:29.868Z,1548.00
2017-11-22T09:05:29.855Z,1544.00
2017-11-22T09:06:29.842Z,1552.00
2017-11-22T09:07:29.827Z,1572.00
2017-11-22T09:08:29.814Z,1544.00
2017-11-22T09:09:29.800Z,1528.00
2017-11-22T09:10:29.784Z,1516.00
2017-11-22T09:11:29.776Z,1464.00
2017-11-22T09:12:29.756Z,1380.00
2017-11-22T09:13:29.743Z,1392.00
2017-11-22T09:14:29.735Z,1536.00
2017-11-22T09:15:29.722Z,1480.00
2017-11-22T09:16:29.701Z,1400.00
2017-11-22T09:17:29.688Z,1400.00
2017-11-22T09:18:29.681Z,1424.00
2017-11-22T09:19:29.660Z,1580.00
2017-11-22T09:20:29.646Z,1540.00
2017-11-22T09:21:29.638Z,1380.00
2017-11-22T09:22:29.631Z,1312.00
2017-11-22T09:23:29.604Z,1300.00
2017-11-22T09:24:29.591Z,1412.00
2017-11-22T09:25:29.579Z,1436.00
2017-11-22T09:26:29.564Z,1476.00
2017-11-22T09:27:29.556Z,1452.00
2017-11-22T09:28:29.537Z,1400.00
2017-11-22T09:29:29.524Z,1536.00
2017-11-22T09:30:29.517Z,1428.00
2017-11-22T09:31:29.502Z,1464.00
2017-11-22T09:32:29.482Z,1416.00
2017-11-22T09:33:29.477Z,1324.00
2017-11-22T09:34:29.456Z,1452.00
2017-11-22T09:35:29.444Z,1340.00
2017-11-22T09:36:29.428Z,1300.00
2017-11-22T09:37:29.422Z,1272.00
2017-11-22T09:38:29.410Z,1180.00
2017-11-22T09:39:29.395Z,1228.00
2017-11-22T09:40:29.381Z,1288.00
2017-11-22T09:41:29.364Z,1344.00
2017-11-22T09:42:29.354Z,1492.00
2017-11-22T09:43:29.334Z,1604.00
2017-11-22T09:44:29.324Z,1596.00
2017-11-22T09:45:29.311Z,1624.00
2017-11-22T09:46:29.296Z,1632.00
2017-11-22T09:47:29.284Z,1636.00
2017-11-22T09:48:29.274Z,1424.00
2017-11-22T09:49:29.258Z,1568.00
2017-11-22T09:50:29.251Z,1596.00
2017-11-22T09:51:29.241Z,1568.00
2017-11-22T09:52:29.230Z,1552.00
2017-11-22T09:53:29.208Z,1640.00
2017-11-22T09:54:29.194Z,1584.00
2017-11-22T09:55:29.182Z,1628.00
2017-11-22T09:56:29.174Z,1664.00
2017-11-22T09:57:29.156Z,1720.00
2017-11-22T09:58:29.144Z,1696.00
2017-11-22T09:59:29.129Z,1684.00
2017-11-22T10:00:29.117Z,1664.00
2017-11-22T10:01:29.111Z,1692.00
2017-11-22T10:02:29.102Z,1660.00
2017-11-22T10:03:29.087Z,1660.00
2017-11-22T10:04:29.069Z,1608.00
2017-11-22T10:05:29.062Z,1600.00
2017-11-22T10:06:29.044Z,1640.00
2017-11-22T10:07:29.035Z,1628.00
2017-11-22T10:08:29.028Z,1628.00
2017-11-22T10:09:29.016Z,1636.00
2017-11-22T10:10:28.999Z,1704.00
2017-11-22T10:11:28.985Z,1732.00
2017-11-22T10:12:28.980Z,1732.00
2017-11-22T10:13:28.962Z,1752.00
2017-11-22T10:14:28.950Z,1736.00
2017-11-22T10:15:28.937Z,1756.00
2017-11-22T10:16:28.928Z,1736.00
2017-11-22T10:17:28.921Z,1740.00
2017-11-22T10:18:28.903Z,1756.00
2017-11-22T10:19:28.893Z,1756.00
2017-11-22T10:20:28.887Z,1780.00
2017-11-22T10:21:28.869Z,1744.00
2017-11-22T10:22:28.871Z,1696.00
2017-11-22T10:23:28.852Z,1788.00
2017-11-22T10:24:28.842Z,1868.00
2017-11-22T10:25:28.824Z,1708.00
2017-11-22T10:26:28.818Z,1800.00
2017-11-22T10:27:28.801Z,1696.00
2017-11-22T10:28:28.799Z,1736.00
2017-11-22T10:29:28.779Z,1636.00
2017-11-22T10:30:28.769Z,1808.00
2017-11-22T10:31:28.758Z,1916.00
2017-11-22T10:32:28.752Z,1916.00
2017-11-22T10:33:28.734Z,1792.00
2017-11-22T10:34:28.726Z,1840.00
2017-11-22T10:35:28.714Z,1864.00
2017-11-22T10:36:28.703Z,1848.00
2017-11-22T10:37:28.692Z,1792.00
2017-11-22T10:38:28.682Z,1728.00
2017-11-22T10:39:28.668Z,1732.00
2017-11-22T10:40:28.658Z,1700.00
2017-11-22T10:41:28.648Z,1748.00
2017-11-22T10:42:28.637Z,1700.00
2017-11-22T10:43:28.627Z,1736.00
2017-11-22T10:44:28.623Z,1828.00
2017-11-22T10:45:28.606Z,1828.00
2017-11-22T10:46:28.596Z,1808.00
2017-11-22T10:47:28.583Z,1692.00
2017-11-22T10:48:28.578Z,1752.00
2017-11-22T10:49:28.564Z,1908.00
2017-11-22T10:50:28.554Z,1948.00
2017-11-22T10:51:28.541Z,1952.00
2017-11-22T10:52:28.541Z,1920.00
2017-11-22T10:53:28.522Z,1892.00
2017-11-22T10:54:28.512Z,1896.00
2017-11-22T10:55:28.503Z,1856.00
2017-11-22T10:56:28.490Z,1816.00
2017-11-22T10:57:28.480Z,1808.00
2017-11-22T10:58:28.469Z,1692.00
2017-11-22T10:59:28.457Z,1688.00
2017-11-22T11:00:28.452Z,1636.00
2017-11-22T11:01:28.438Z,1616.00
2017-11-22T11:02:28.440Z,1664.00
2017-11-22T11:03:28.417Z,1696.00
2017-11-22T11:04:28.412Z,1704.00
2017-11-22T11:05:28.403Z,1752.00
2017-11-22T11:06:28.393Z,1724.00
2017-11-22T11:07:28.377Z,1736.00
2017-11-22T11:08:28.367Z,1732.00
2017-11-22T11:09:28.362Z,1700.00
2017-11-22T11:10:28.347Z,1732.00
2017-11-22T11:11:28.339Z,1744.00
2017-11-22T11:12:28.325Z,1772.00
2017-11-22T11:13:28.320Z,1760.00
2017-11-22T11:14:28.312Z,1720.00
2017-11-22T11:15:28.304Z,1648.00
2017-11-22T11:16:28.289Z,1692.00
2017-11-22T11:17:28.276Z,1764.00
2017-11-22T11:18:28.269Z,1784.00
2017-11-22T11:19:28.264Z,1768.00
2017-11-22T11:20:28.247Z,1796.00
2017-11-22T11:21:28.244Z,1824.00
2017-11-22T11:22:28.236Z,1796.00
2017-11-22T11:23:28.217Z,1816.00
2017-11-22T11:24:28.211Z,1792.00
2017-11-22T11:25:28.199Z,1748.00
2017-11-22T11:26:28.192Z,1744.00
2017-11-22T11:27:28.180Z,1716.00
2017-11-22T11:28:28.172Z,1612.00
2017-11-22T11:29:28.160Z,1668.00
2017-11-22T11:30:28.152Z,1748.00
2017-11-22T11:31:28.142Z,1748.00
2017-11-22T11:32:28.137Z,1748.00
2017-11-22T11:33:28.128Z,1644.00
2017-11-22T11:34:28.113Z,1644.00
2017-11-22T11:35:28.112Z,1680.00
2017-11-22T11:36:28.092Z,1668.00
2017-11-22T11:37:28.085Z,1640.00
2017-11-22T11:38:28.080Z,1736.00
2017-11-22T11:39:28.071Z,1640.00
2017-11-22T11:40:28.064Z,1732.00
2017-11-22T11:41:28.050Z,1716.00
2017-11-22T11:42:28.038Z,1708.00
2017-11-22T11:43:28.028Z,1748.00
2017-11-22T11:44:28.019Z,1724.00
2017-11-22T11:45:28.011Z,1704.00
2017-11-22T11:46:28.001Z,1700.00
2017-11-22T11:47:27.991Z,1692.00
2017-11-22T11:48:27.981Z,1648.00
2017-11-22T11:49:27.981Z,1700.00
2017-11-22T11:50:27.963Z,1736.00
2017-11-22T11:51:27.953Z,1740.00
2017-11-22T11:52:27.943Z,1700.00
2017-11-22T11:53:27.940Z,1708.00
2017-11-22T11:54:27.926Z,1700.00
2017-11-22T11:55:27.924Z,1720.00
2017-11-22T11:56:27.908Z,1736.00
2017-11-22T11:57:27.903Z,1740.00
2017-11-22T11:58:27.888Z,1724.00
2017-11-22T11:59:27.888Z,1716.00
2017-11-22T12:00:27.871Z,1720.00
2017-11-22T12:01:27.858Z,1724.00
2017-11-22T12:02:27.852Z,1728.00
2017-11-22T12:03:27.848Z,1728.00
2017-11-22T12:04:27.832Z,1720.00
2017-11-22T12:05:27.824Z,1720.00
2017-11-22T12:06:27.814Z,1716.00
2017-11-22T12:07:27.805Z,1712.00
2017-11-22T12:08:27.798Z,1708.00
2017-11-22T12:09:27.789Z,1708.00
2017-11-22T12:10:27.778Z,1704.00
2017-11-22T12:11:27.769Z,1704.00
2017-11-22T12:12:27.760Z,1704.00
2017-11-22T12:13:27.753Z,1704.00
2017-11-22T12:14:27.742Z,1692.00
2017-11-22T12:15:27.739Z,1696.00
2017-11-22T12:16:27.731Z,1700.00
2017-11-22T12:17:27.717Z,1696.00
2017-11-22T12:18:27.708Z,1696.00
2017-11-22T12:19:27.716Z,1700.00
2017-11-22T12:20:27.689Z,1688.00
2017-11-22T12:21:27.686Z,1692.00
2017-11-22T12:22:27.671Z,1688.00
2017-11-22T12:23:27.662Z,1688.00
2017-11-22T12:24:27.659Z,1684.00
2017-11-22T12:25:27.650Z,1684.00
2017-11-22T12:26:27.643Z,1680.00
2017-11-22T12:27:27.627Z,1676.00
2017-11-22T12:28:27.617Z,1672.00
2017-11-22T12:29:27.610Z,1672.00
2017-11-22T12:30:27.601Z,1668.00
2017-11-22T12:31:27.592Z,1668.00
2017-11-22T12:32:27.583Z,1668.00
2017-11-22T12:33:27.581Z,1668.00
2017-11-22T12:34:27.573Z,1664.00
2017-11-22T12:35:27.556Z,1664.00
2017-11-22T12:36:27.554Z,1668.00
2017-11-22T12:37:27.547Z,1668.00
2017-11-22T12:38:27.535Z,1664.00
2017-11-22T12:39:27.521Z,1664.00
2017-11-22T12:40:27.512Z,1668.00
2017-11-22T12:41:27.505Z,1668.00
2017-11-22T12:42:27.498Z,1664.00
2017-11-22T12:43:27.491Z,1668.00
2017-11-22T12:44:27.511Z,1664.00
2017-11-22T12:45:27.470Z,1664.00